Airfield :
LOGIN :

Register | Disclaimer

   EN    FR    IT 

 










Legend :    VFR   Marginal VFR   IFR   Intensive IFR   Very Intensive IFR
Visi :
Ceiling :
>= 8 km
>= 3000ft
5 to 8 km
1000 to 3000 ft
1500m to 5 km
500 to 1000 ft
800 to 1500m
200 to 500 ft
< 800m
< 200 ft
Symbols :   Thunderstorms  Fog  Heavy snow  Heavy precipitations  Wind > 20 kt
SIGMETs :     Misc.  Thunderstorms  Icing  Turbulence  Mountain Waves  Volcanic Ashes







- Airport Elevation : 778 ft
- IATA code : BRQ


LKTB - Brno-Turany

CURRENT METAR :
  • 191100Z 18004KT 6000 NSC 05/01 Q1019 NOSIG

EXPIRED METARs :
  • 191030Z 17003KT 130V220 6000 NSC 05/02 Q1020 NOSIG
  • 191000Z 14003KT 6000 NSC 04/01 Q1020 NOSIG
  • 190930Z 20003KT 160V230 6000 NSC 03/00 Q1020 NOSIG
  • 190900Z 17003KT 130V220 6000 NSC 03/M00 Q1019 NOSIG
  • 190830Z VRB01KT 7000 NSC 02/M00 Q1019 NOSIG

TAF TAF LKTB
Valid from the 19 at 06:00 until the 20 at 12:00 UTC


190500Z 1906/2012 VRB02KT 5000 BR NSC
BECMG 1907/1909 25006KT CAVOK
BECMG 1912/1914 30010KT
TEMPO 1920/2000 BKN037
BECMG 2008/2010 SCT043
No reported NOTAMs for that airfield.



MET'MAP, your aeronautical weather chart ! - Copyright ORBIFLY December 2007 - Disclaimer

ORBIFLY MET'MAP TEAM :

Programming & Development : Alexandra Zaïnal
Concept & Development : Baudouin d'Aumeries
Co-Development & Prog : Marc-Olivier Méhu
Technical & hardware support : Manuel Goepfert

Contact : metmap@orbifly.com




SOURCES & CREDITS :

   NOAA